sensor_id;sensor_type;location;lat;lon;timestamp;P1;durP1;ratioP1;P2;durP2;ratioP2
1376;SDS011;682;52.502;13.488;2023-05-13T00:00:57;10.40;;;5.83;;
1376;SDS011;682;52.502;13.488;2023-05-13T00:03:26;6.73;;;6.13;;
1376;SDS011;682;52.502;13.488;2023-05-13T00:05:53;5.80;;;5.30;;
1376;SDS011;682;52.502;13.488;2023-05-13T00:08:20;5.87;;;5.20;;
1376;SDS011;682;52.502;13.488;2023-05-13T00:10:48;5.57;;;5.07;;
1376;SDS011;682;52.502;13.488;2023-05-13T00:13:15;5.67;;;5.17;;
1376;SDS011;682;52.502;13.488;2023-05-13T00:15:42;8.90;;;5.90;;
1376;SDS011;682;52.502;13.488;2023-05-13T00:18:09;7.77;;;5.83;;
1376;SDS011;682;52.502;13.488;2023-05-13T00:20:40;9.00;;;5.97;;
1376;SDS011;682;52.502;13.488;2023-05-13T00:23:09;6.53;;;5.47;;
1376;SDS011;682;52.502;13.488;2023-05-13T00:25:36;6.20;;;5.60;;
1376;SDS011;682;52.502;13.488;2023-05-13T00:28:05;6.03;;;5.43;;
1376;SDS011;682;52.502;13.488;2023-05-13T00:30:32;6.73;;;5.50;;
1376;SDS011;682;52.502;13.488;2023-05-13T00:33:00;6.27;;;5.67;;
1376;SDS011;682;52.502;13.488;2023-05-13T00:35:28;7.07;;;6.10;;
1376;SDS011;682;52.502;13.488;2023-05-13T00:37:56;8.80;;;5.50;;
1376;SDS011;682;52.502;13.488;2023-05-13T00:40:23;9.93;;;5.37;;
1376;SDS011;682;52.502;13.488;2023-05-13T00:42:53;6.80;;;6.10;;
1376;SDS011;682;52.502;13.488;2023-05-13T00:45:20;5.50;;;5.00;;
1376;SDS011;682;52.502;13.488;2023-05-13T00:47:47;7.13;;;5.90;;
1376;SDS011;682;52.502;13.488;2023-05-13T00:50:14;6.83;;;5.80;;
1376;SDS011;682;52.502;13.488;2023-05-13T00:52:41;7.00;;;6.40;;
1376;SDS011;682;52.502;13.488;2023-05-13T00:55:11;6.37;;;5.73;;
1376;SDS011;682;52.502;13.488;2023-05-13T00:57:39;6.70;;;5.70;;
1376;SDS011;682;52.502;13.488;2023-05-13T01:00:10;6.93;;;5.80;;
1376;SDS011;682;52.502;13.488;2023-05-13T01:02:46;5.87;;;5.37;;
1376;SDS011;682;52.502;13.488;2023-05-13T01:05:28;6.33;;;5.73;;
1376;SDS011;682;52.502;13.488;2023-05-13T01:08:09;9.90;;;6.00;;
1376;SDS011;682;52.502;13.488;2023-05-13T01:10:46;5.53;;;5.03;;
1376;SDS011;682;52.502;13.488;2023-05-13T01:13:16;6.43;;;5.73;;
1376;SDS011;682;52.502;13.488;2023-05-13T01:15:49;5.53;;;5.13;;
1376;SDS011;682;52.502;13.488;2023-05-13T01:18:23;6.20;;;5.60;;
1376;SDS011;682;52.502;13.488;2023-05-13T01:21:03;5.97;;;5.30;;
1376;SDS011;682;52.502;13.488;2023-05-13T01:23:32;6.57;;;5.90;;
1376;SDS011;682;52.502;13.488;2023-05-13T01:26:00;7.33;;;6.20;;
1376;SDS011;682;52.502;13.488;2023-05-13T01:28:26;6.80;;;6.10;;
1376;SDS011;682;52.502;13.488;2023-05-13T01:30:54;7.73;;;6.53;;
1376;SDS011;682;52.502;13.488;2023-05-13T01:33:22;6.00;;;5.50;;
1376;SDS011;682;52.502;13.488;2023-05-13T01:35:50;8.80;;;6.40;;
1376;SDS011;682;52.502;13.488;2023-05-13T01:38:18;6.20;;;5.60;;
1376;SDS011;682;52.502;13.488;2023-05-13T01:40:48;7.27;;;6.50;;
1376;SDS011;682;52.502;13.488;2023-05-13T01:43:15;7.20;;;6.27;;
1376;SDS011;682;52.502;13.488;2023-05-13T01:45:42;6.70;;;5.93;;
1376;SDS011;682;52.502;13.488;2023-05-13T01:48:10;6.00;;;5.50;;
1376;SDS011;682;52.502;13.488;2023-05-13T01:50:37;6.13;;;5.53;;
1376;SDS011;682;52.502;13.488;2023-05-13T01:53:04;8.10;;;5.90;;
1376;SDS011;682;52.502;13.488;2023-05-13T01:55:31;8.93;;;6.77;;
1376;SDS011;682;52.502;13.488;2023-05-13T01:57:59;7.53;;;6.83;;
1376;SDS011;682;52.502;13.488;2023-05-13T02:00:26;7.77;;;6.30;;
1376;SDS011;682;52.502;13.488;2023-05-13T02:02:53;6.23;;;5.70;;
1376;SDS011;682;52.502;13.488;2023-05-13T02:05:20;7.80;;;6.43;;
1376;SDS011;682;52.502;13.488;2023-05-13T02:07:47;6.13;;;5.63;;
1376;SDS011;682;52.502;13.488;2023-05-13T02:10:15;6.37;;;5.63;;
1376;SDS011;682;52.502;13.488;2023-05-13T02:12:42;6.63;;;5.70;;
1376;SDS011;682;52.502;13.488;2023-05-13T02:15:10;7.33;;;6.57;;
1376;SDS011;682;52.502;13.488;2023-05-13T02:17:38;6.20;;;5.70;;
1376;SDS011;682;52.502;13.488;2023-05-13T02:20:05;7.80;;;6.10;;
1376;SDS011;682;52.502;13.488;2023-05-13T02:22:33;6.20;;;5.60;;
1376;SDS011;682;52.502;13.488;2023-05-13T02:25:01;8.53;;;7.00;;
1376;SDS011;682;52.502;13.488;2023-05-13T02:27:28;7.90;;;6.83;;
1376;SDS011;682;52.502;13.488;2023-05-13T02:29:56;6.90;;;6.30;;
1376;SDS011;682;52.502;13.488;2023-05-13T02:32:24;6.57;;;5.97;;
1376;SDS011;682;52.502;13.488;2023-05-13T02:34:51;6.30;;;5.80;;
1376;SDS011;682;52.502;13.488;2023-05-13T02:37:19;6.30;;;5.70;;
1376;SDS011;682;52.502;13.488;2023-05-13T02:39:46;7.07;;;6.03;;
1376;SDS011;682;52.502;13.488;2023-05-13T02:42:14;7.60;;;6.40;;
1376;SDS011;682;52.502;13.488;2023-05-13T02:44:41;7.10;;;6.50;;
1376;SDS011;682;52.502;13.488;2023-05-13T02:47:08;8.47;;;6.70;;
1376;SDS011;682;52.502;13.488;2023-05-13T02:49:36;7.30;;;6.60;;
1376;SDS011;682;52.502;13.488;2023-05-13T02:52:03;7.47;;;6.67;;
1376;SDS011;682;52.502;13.488;2023-05-13T02:54:31;7.80;;;6.97;;
1376;SDS011;682;52.502;13.488;2023-05-13T02:56:58;7.70;;;6.50;;
1376;SDS011;682;52.502;13.488;2023-05-13T02:59:25;7.47;;;6.77;;
1376;SDS011;682;52.502;13.488;2023-05-13T03:01:51;6.67;;;6.07;;
1376;SDS011;682;52.502;13.488;2023-05-13T03:04:19;6.80;;;6.23;;
1376;SDS011;682;52.502;13.488;2023-05-13T03:06:47;7.87;;;6.90;;
1376;SDS011;682;52.502;13.488;2023-05-13T03:09:17;8.43;;;6.53;;
1376;SDS011;682;52.502;13.488;2023-05-13T03:11:44;7.13;;;6.43;;
1376;SDS011;682;52.502;13.488;2023-05-13T03:14:11;8.30;;;6.60;;
1376;SDS011;682;52.502;13.488;2023-05-13T03:16:38;8.70;;;5.57;;
1376;SDS011;682;52.502;13.488;2023-05-13T03:19:05;8.57;;;7.50;;
1376;SDS011;682;52.502;13.488;2023-05-13T03:21:32;9.67;;;6.40;;
1376;SDS011;682;52.502;13.488;2023-05-13T03:24:00;9.23;;;6.57;;
1376;SDS011;682;52.502;13.488;2023-05-13T03:26:27;8.73;;;6.60;;
1376;SDS011;682;52.502;13.488;2023-05-13T03:28:54;6.67;;;6.17;;
1376;SDS011;682;52.502;13.488;2023-05-13T03:31:21;8.17;;;6.83;;
1376;SDS011;682;52.502;13.488;2023-05-13T03:33:50;9.70;;;6.30;;
1376;SDS011;682;52.502;13.488;2023-05-13T03:36:17;11.23;;;6.80;;
1376;SDS011;682;52.502;13.488;2023-05-13T03:38:44;7.70;;;6.50;;
1376;SDS011;682;52.502;13.488;2023-05-13T03:41:12;7.70;;;6.90;;
1376;SDS011;682;52.502;13.488;2023-05-13T03:43:41;10.30;;;6.43;;
1376;SDS011;682;52.502;13.488;2023-05-13T03:46:09;12.30;;;7.50;;
1376;SDS011;682;52.502;13.488;2023-05-13T03:48:36;8.27;;;6.93;;
1376;SDS011;682;52.502;13.488;2023-05-13T03:51:03;7.70;;;6.90;;
1376;SDS011;682;52.502;13.488;2023-05-13T03:53:31;9.80;;;6.80;;
1376;SDS011;682;52.502;13.488;2023-05-13T03:55:58;8.30;;;6.80;;
1376;SDS011;682;52.502;13.488;2023-05-13T03:58:26;8.40;;;7.30;;
1376;SDS011;682;52.502;13.488;2023-05-13T04:00:53;9.50;;;7.00;;
1376;SDS011;682;52.502;13.488;2023-05-13T04:03:20;7.10;;;6.50;;
1376;SDS011;682;52.502;13.488;2023-05-13T04:05:48;9.50;;;6.67;;
1376;SDS011;682;52.502;13.488;2023-05-13T04:08:15;11.77;;;6.57;;
1376;SDS011;682;52.502;13.488;2023-05-13T04:10:43;13.13;;;8.30;;
1376;SDS011;682;52.502;13.488;2023-05-13T04:13:10;8.13;;;5.87;;
1376;SDS011;682;52.502;13.488;2023-05-13T04:15:39;7.40;;;6.67;;
1376;SDS011;682;52.502;13.488;2023-05-13T04:18:06;7.00;;;6.37;;
1376;SDS011;682;52.502;13.488;2023-05-13T04:20:33;6.60;;;6.13;;
1376;SDS011;682;52.502;13.488;2023-05-13T04:23:00;7.10;;;6.40;;
1376;SDS011;682;52.502;13.488;2023-05-13T04:25:28;8.23;;;6.40;;
1376;SDS011;682;52.502;13.488;2023-05-13T04:27:55;7.27;;;6.47;;
1376;SDS011;682;52.502;13.488;2023-05-13T04:30:23;9.33;;;6.90;;
1376;SDS011;682;52.502;13.488;2023-05-13T04:32:51;7.70;;;6.70;;
1376;SDS011;682;52.502;13.488;2023-05-13T04:35:18;10.57;;;7.00;;
1376;SDS011;682;52.502;13.488;2023-05-13T04:37:47;8.97;;;7.50;;
1376;SDS011;682;52.502;13.488;2023-05-13T04:40:15;7.60;;;6.73;;
1376;SDS011;682;52.502;13.488;2023-05-13T04:42:42;7.23;;;6.53;;
1376;SDS011;682;52.502;13.488;2023-05-13T04:45:09;6.93;;;6.33;;
1376;SDS011;682;52.502;13.488;2023-05-13T04:47:36;7.67;;;6.70;;
1376;SDS011;682;52.502;13.488;2023-05-13T04:50:05;9.30;;;7.00;;
1376;SDS011;682;52.502;13.488;2023-05-13T04:52:34;6.73;;;6.03;;
1376;SDS011;682;52.502;13.488;2023-05-13T04:55:03;7.83;;;6.73;;
1376;SDS011;682;52.502;13.488;2023-05-13T04:57:30;5.77;;;5.17;;
1376;SDS011;682;52.502;13.488;2023-05-13T04:59:57;6.90;;;6.30;;
1376;SDS011;682;52.502;13.488;2023-05-13T05:02:25;6.97;;;6.47;;
1376;SDS011;682;52.502;13.488;2023-05-13T05:04:54;7.33;;;5.70;;
1376;SDS011;682;52.502;13.488;2023-05-13T05:07:22;7.00;;;6.30;;
1376;SDS011;682;52.502;13.488;2023-05-13T05:09:50;7.77;;;7.07;;
1376;SDS011;682;52.502;13.488;2023-05-13T05:12:17;8.40;;;6.70;;
1376;SDS011;682;52.502;13.488;2023-05-13T05:14:44;7.63;;;6.03;;
1376;SDS011;682;52.502;13.488;2023-05-13T05:17:11;8.87;;;6.50;;
1376;SDS011;682;52.502;13.488;2023-05-13T05:19:38;6.60;;;6.10;;
1376;SDS011;682;52.502;13.488;2023-05-13T05:22:05;6.90;;;6.23;;
1376;SDS011;682;52.502;13.488;2023-05-13T05:24:34;7.80;;;5.87;;
1376;SDS011;682;52.502;13.488;2023-05-13T05:27:01;9.30;;;6.80;;
1376;SDS011;682;52.502;13.488;2023-05-13T05:29:27;6.80;;;6.30;;
1376;SDS011;682;52.502;13.488;2023-05-13T05:31:54;7.80;;;6.00;;
1376;SDS011;682;52.502;13.488;2023-05-13T05:34:21;9.00;;;6.40;;
1376;SDS011;682;52.502;13.488;2023-05-13T05:36:48;9.07;;;5.67;;
1376;SDS011;682;52.502;13.488;2023-05-13T05:39:15;6.43;;;5.83;;
1376;SDS011;682;52.502;13.488;2023-05-13T05:41:44;7.33;;;5.70;;
1376;SDS011;682;52.502;13.488;2023-05-13T05:44:12;6.73;;;5.90;;
1376;SDS011;682;52.502;13.488;2023-05-13T05:46:39;7.07;;;6.13;;
1376;SDS011;682;52.502;13.488;2023-05-13T05:49:06;7.50;;;6.30;;
1376;SDS011;682;52.502;13.488;2023-05-13T05:51:33;11.23;;;5.77;;
1376;SDS011;682;52.502;13.488;2023-05-13T05:54:00;8.33;;;6.10;;
1376;SDS011;682;52.502;13.488;2023-05-13T05:56:27;7.63;;;5.60;;
1376;SDS011;682;52.502;13.488;2023-05-13T05:58:56;7.50;;;5.40;;
1376;SDS011;682;52.502;13.488;2023-05-13T06:01:23;7.90;;;5.57;;
1376;SDS011;682;52.502;13.488;2023-05-13T06:03:50;5.90;;;5.40;;
1376;SDS011;682;52.502;13.488;2023-05-13T06:06:17;6.20;;;5.70;;
1376;SDS011;682;52.502;13.488;2023-05-13T06:08:44;7.43;;;6.30;;
1376;SDS011;682;52.502;13.488;2023-05-13T06:11:12;8.20;;;6.50;;
1376;SDS011;682;52.502;13.488;2023-05-13T06:13:39;6.93;;;5.30;;
1376;SDS011;682;52.502;13.488;2023-05-13T06:16:09;7.70;;;5.83;;
1376;SDS011;682;52.502;13.488;2023-05-13T06:18:36;7.77;;;6.07;;
1376;SDS011;682;52.502;13.488;2023-05-13T06:21:03;6.33;;;5.73;;
1376;SDS011;682;52.502;13.488;2023-05-13T06:23:30;5.53;;;4.60;;
1376;SDS011;682;52.502;13.488;2023-05-13T06:25:57;5.80;;;5.20;;
1376;SDS011;682;52.502;13.488;2023-05-13T06:28:26;6.70;;;5.03;;
1376;SDS011;682;52.502;13.488;2023-05-13T06:30:53;5.50;;;5.03;;
1376;SDS011;682;52.502;13.488;2023-05-13T06:33:22;6.00;;;5.40;;
1376;SDS011;682;52.502;13.488;2023-05-13T06:35:49;6.03;;;5.20;;
1376;SDS011;682;52.502;13.488;2023-05-13T06:38:17;6.60;;;5.70;;
1376;SDS011;682;52.502;13.488;2023-05-13T06:40:47;6.70;;;4.63;;
1376;SDS011;682;52.502;13.488;2023-05-13T06:43:14;5.87;;;5.20;;
1376;SDS011;682;52.502;13.488;2023-05-13T06:45:42;5.20;;;4.67;;
1376;SDS011;682;52.502;13.488;2023-05-13T06:48:12;7.20;;;5.33;;
1376;SDS011;682;52.502;13.488;2023-05-13T06:50:42;6.63;;;5.10;;
1376;SDS011;682;52.502;13.488;2023-05-13T06:53:09;4.90;;;4.23;;
1376;SDS011;682;52.502;13.488;2023-05-13T06:55:36;6.60;;;4.80;;
1376;SDS011;682;52.502;13.488;2023-05-13T06:58:07;5.27;;;4.77;;
1376;SDS011;682;52.502;13.488;2023-05-13T07:00:36;5.03;;;4.60;;
1376;SDS011;682;52.502;13.488;2023-05-13T07:03:04;8.27;;;5.43;;
1376;SDS011;682;52.502;13.488;2023-05-13T07:05:32;5.60;;;4.93;;
1376;SDS011;682;52.502;13.488;2023-05-13T07:08:02;15.57;;;6.07;;
1376;SDS011;682;52.502;13.488;2023-05-13T07:10:32;5.63;;;5.07;;
1376;SDS011;682;52.502;13.488;2023-05-13T07:13:00;4.80;;;4.40;;
1376;SDS011;682;52.502;13.488;2023-05-13T07:15:27;9.20;;;4.53;;
1376;SDS011;682;52.502;13.488;2023-05-13T07:18:02;8.03;;;4.57;;
1376;SDS011;682;52.502;13.488;2023-05-13T07:20:33;5.07;;;4.67;;
1376;SDS011;682;52.502;13.488;2023-05-13T07:23:04;5.43;;;5.00;;
1376;SDS011;682;52.502;13.488;2023-05-13T07:25:32;6.10;;;4.50;;
1376;SDS011;682;52.502;13.488;2023-05-13T07:27:59;5.20;;;4.60;;
1376;SDS011;682;52.502;13.488;2023-05-13T07:30:28;4.50;;;4.10;;
1376;SDS011;682;52.502;13.488;2023-05-13T07:32:56;4.70;;;3.60;;
1376;SDS011;682;52.502;13.488;2023-05-13T07:35:26;7.27;;;3.80;;
1376;SDS011;682;52.502;13.488;2023-05-13T07:37:55;4.60;;;3.83;;
1376;SDS011;682;52.502;13.488;2023-05-13T07:40:30;8.53;;;4.50;;
1376;SDS011;682;52.502;13.488;2023-05-13T07:43:00;4.73;;;4.33;;
1376;SDS011;682;52.502;13.488;2023-05-13T07:45:28;7.07;;;4.30;;
1376;SDS011;682;52.502;13.488;2023-05-13T07:47:56;7.43;;;4.80;;
1376;SDS011;682;52.502;13.488;2023-05-13T07:50:23;5.30;;;4.00;;
1376;SDS011;682;52.502;13.488;2023-05-13T07:52:51;4.63;;;4.23;;
1376;SDS011;682;52.502;13.488;2023-05-13T07:55:20;4.80;;;4.30;;
1376;SDS011;682;52.502;13.488;2023-05-13T07:57:48;4.70;;;4.30;;
1376;SDS011;682;52.502;13.488;2023-05-13T08:00:16;7.43;;;4.10;;
1376;SDS011;682;52.502;13.488;2023-05-13T08:02:43;5.00;;;4.50;;
1376;SDS011;682;52.502;13.488;2023-05-13T08:05:10;6.27;;;4.20;;
1376;SDS011;682;52.502;13.488;2023-05-13T08:07:39;6.03;;;4.60;;
1376;SDS011;682;52.502;13.488;2023-05-13T08:10:07;4.30;;;4.00;;
1376;SDS011;682;52.502;13.488;2023-05-13T08:12:36;5.10;;;4.03;;
1376;SDS011;682;52.502;13.488;2023-05-13T08:15:07;8.20;;;4.47;;
1376;SDS011;682;52.502;13.488;2023-05-13T08:17:38;11.17;;;4.60;;
1376;SDS011;682;52.502;13.488;2023-05-13T08:20:05;6.70;;;4.20;;
1376;SDS011;682;52.502;13.488;2023-05-13T08:22:35;3.93;;;3.53;;
1376;SDS011;682;52.502;13.488;2023-05-13T08:25:03;5.07;;;4.57;;
1376;SDS011;682;52.502;13.488;2023-05-13T08:27:30;11.27;;;10.53;;
1376;SDS011;682;52.502;13.488;2023-05-13T08:29:59;4.80;;;4.30;;
1376;SDS011;682;52.502;13.488;2023-05-13T08:32:28;4.43;;;4.03;;
1376;SDS011;682;52.502;13.488;2023-05-13T08:34:57;9.53;;;5.07;;
1376;SDS011;682;52.502;13.488;2023-05-13T08:37:25;4.63;;;4.23;;
1376;SDS011;682;52.502;13.488;2023-05-13T08:39:52;5.10;;;4.60;;
1376;SDS011;682;52.502;13.488;2023-05-13T08:42:20;4.33;;;3.83;;
1376;SDS011;682;52.502;13.488;2023-05-13T08:44:48;6.60;;;4.13;;
1376;SDS011;682;52.502;13.488;2023-05-13T08:47:22;4.37;;;3.83;;
1376;SDS011;682;52.502;13.488;2023-05-13T08:49:56;5.30;;;4.10;;
1376;SDS011;682;52.502;13.488;2023-05-13T08:52:23;4.37;;;4.00;;
1376;SDS011;682;52.502;13.488;2023-05-13T08:54:51;4.50;;;3.80;;
1376;SDS011;682;52.502;13.488;2023-05-13T08:57:20;8.27;;;4.70;;
1376;SDS011;682;52.502;13.488;2023-05-13T08:59:47;4.70;;;4.23;;
1376;SDS011;682;52.502;13.488;2023-05-13T09:02:16;9.80;;;4.30;;
1376;SDS011;682;52.502;13.488;2023-05-13T09:04:45;4.80;;;4.40;;
1376;SDS011;682;52.502;13.488;2023-05-13T09:07:23;4.80;;;4.40;;
1376;SDS011;682;52.502;13.488;2023-05-13T09:09:50;5.77;;;5.20;;
1376;SDS011;682;52.502;13.488;2023-05-13T09:15:10;5.13;;;4.17;;
1376;SDS011;682;52.502;13.488;2023-05-13T09:17:41;6.80;;;6.13;;
1376;SDS011;682;52.502;13.488;2023-05-13T09:20:11;4.50;;;4.00;;
1376;SDS011;682;52.502;13.488;2023-05-13T09:22:41;5.90;;;4.50;;
1376;SDS011;682;52.502;13.488;2023-05-13T09:25:11;8.30;;;4.67;;
1376;SDS011;682;52.502;13.488;2023-05-13T09:27:40;5.10;;;4.30;;
1376;SDS011;682;52.502;13.488;2023-05-13T09:30:08;4.83;;;4.33;;
1376;SDS011;682;52.502;13.488;2023-05-13T09:32:37;4.73;;;3.50;;
1376;SDS011;682;52.502;13.488;2023-05-13T09:35:08;6.40;;;4.40;;
1376;SDS011;682;52.502;13.488;2023-05-13T09:37:41;9.93;;;4.20;;
1376;SDS011;682;52.502;13.488;2023-05-13T09:40:12;5.00;;;3.87;;
1376;SDS011;682;52.502;13.488;2023-05-13T09:42:41;5.33;;;4.50;;
1376;SDS011;682;52.502;13.488;2023-05-13T09:45:09;3.87;;;3.57;;
1376;SDS011;682;52.502;13.488;2023-05-13T09:47:37;9.40;;;3.93;;
1376;SDS011;682;52.502;13.488;2023-05-13T09:50:06;6.17;;;3.30;;
1376;SDS011;682;52.502;13.488;2023-05-13T09:52:36;4.03;;;3.63;;
1376;SDS011;682;52.502;13.488;2023-05-13T09:55:07;3.77;;;3.37;;
1376;SDS011;682;52.502;13.488;2023-05-13T09:57:35;3.73;;;3.17;;
1376;SDS011;682;52.502;13.488;2023-05-13T10:00:05;4.70;;;3.47;;
1376;SDS011;682;52.502;13.488;2023-05-13T10:02:33;5.60;;;3.77;;
1376;SDS011;682;52.502;13.488;2023-05-13T10:05:02;6.30;;;2.97;;
1376;SDS011;682;52.502;13.488;2023-05-13T10:07:33;5.97;;;4.70;;
1376;SDS011;682;52.502;13.488;2023-05-13T10:10:03;8.50;;;4.23;;
1376;SDS011;682;52.502;13.488;2023-05-13T10:12:32;3.47;;;3.17;;
1376;SDS011;682;52.502;13.488;2023-05-13T10:15:06;4.00;;;3.60;;
1376;SDS011;682;52.502;13.488;2023-05-13T10:17:34;3.83;;;3.40;;
1376;SDS011;682;52.502;13.488;2023-05-13T10:20:01;5.70;;;3.30;;
1376;SDS011;682;52.502;13.488;2023-05-13T10:22:31;3.77;;;3.40;;
1376;SDS011;682;52.502;13.488;2023-05-13T10:25:01;12.50;;;5.67;;
1376;SDS011;682;52.502;13.488;2023-05-13T10:27:30;5.30;;;4.00;;
1376;SDS011;682;52.502;13.488;2023-05-13T10:30:00;6.20;;;4.57;;
1376;SDS011;682;52.502;13.488;2023-05-13T10:32:35;4.43;;;3.33;;
1376;SDS011;682;52.502;13.488;2023-05-13T10:35:06;4.73;;;3.67;;
1376;SDS011;682;52.502;13.488;2023-05-13T10:37:49;5.03;;;3.53;;
1376;SDS011;682;52.502;13.488;2023-05-13T10:43:26;5.30;;;3.67;;
1376;SDS011;682;52.502;13.488;2023-05-13T10:45:55;5.90;;;4.00;;
1376;SDS011;682;52.502;13.488;2023-05-13T10:48:23;3.70;;;3.37;;
1376;SDS011;682;52.502;13.488;2023-05-13T10:50:51;4.40;;;3.60;;
1376;SDS011;682;52.502;13.488;2023-05-13T10:53:21;3.73;;;3.43;;
1376;SDS011;682;52.502;13.488;2023-05-13T10:55:54;3.67;;;3.37;;
1376;SDS011;682;52.502;13.488;2023-05-13T10:58:29;4.50;;;3.37;;
1376;SDS011;682;52.502;13.488;2023-05-13T11:01:16;3.30;;;2.83;;
1376;SDS011;682;52.502;13.488;2023-05-13T11:03:54;3.87;;;2.90;;
1376;SDS011;682;52.502;13.488;2023-05-13T11:06:23;6.50;;;3.00;;
1376;SDS011;682;52.502;13.488;2023-05-13T11:08:54;3.90;;;3.60;;
1376;SDS011;682;52.502;13.488;2023-05-13T11:11:24;4.30;;;3.20;;
1376;SDS011;682;52.502;13.488;2023-05-13T11:14:08;5.47;;;3.40;;
1376;SDS011;682;52.502;13.488;2023-05-13T11:16:46;5.00;;;3.80;;
1376;SDS011;682;52.502;13.488;2023-05-13T11:19:18;4.30;;;2.93;;
1376;SDS011;682;52.502;13.488;2023-05-13T11:21:49;3.63;;;3.13;;
1376;SDS011;682;52.502;13.488;2023-05-13T11:24:18;3.77;;;2.73;;
1376;SDS011;682;52.502;13.488;2023-05-13T11:26:50;3.83;;;3.40;;
1376;SDS011;682;52.502;13.488;2023-05-13T11:29:29;5.23;;;3.43;;
1376;SDS011;682;52.502;13.488;2023-05-13T11:31:57;4.10;;;2.80;;
1376;SDS011;682;52.502;13.488;2023-05-13T11:34:25;3.53;;;2.80;;
1376;SDS011;682;52.502;13.488;2023-05-13T11:36:54;5.13;;;3.63;;
1376;SDS011;682;52.502;13.488;2023-05-13T11:39:26;6.93;;;3.00;;
1376;SDS011;682;52.502;13.488;2023-05-13T11:41:57;3.80;;;2.97;;
1376;SDS011;682;52.502;13.488;2023-05-13T11:44:25;4.07;;;3.67;;
1376;SDS011;682;52.502;13.488;2023-05-13T11:46:53;6.60;;;3.13;;
1376;SDS011;682;52.502;13.488;2023-05-13T11:52:12;4.07;;;3.03;;
1376;SDS011;682;52.502;13.488;2023-05-13T11:54:41;6.10;;;4.67;;
1376;SDS011;682;52.502;13.488;2023-05-13T11:57:16;3.73;;;2.90;;
1376;SDS011;682;52.502;13.488;2023-05-13T11:59:53;3.90;;;3.10;;
1376;SDS011;682;52.502;13.488;2023-05-13T12:02:23;4.90;;;3.40;;
1376;SDS011;682;52.502;13.488;2023-05-13T12:04:52;3.73;;;3.43;;
1376;SDS011;682;52.502;13.488;2023-05-13T12:07:20;5.27;;;3.20;;
1376;SDS011;682;52.502;13.488;2023-05-13T12:09:48;4.57;;;3.30;;
1376;SDS011;682;52.502;13.488;2023-05-13T12:12:16;4.10;;;2.97;;
1376;SDS011;682;52.502;13.488;2023-05-13T12:14:44;5.97;;;3.77;;
1376;SDS011;682;52.502;13.488;2023-05-13T12:17:14;6.47;;;3.63;;
1376;SDS011;682;52.502;13.488;2023-05-13T12:22:31;5.30;;;4.20;;
1376;SDS011;682;52.502;13.488;2023-05-13T12:24:58;4.43;;;3.40;;
1376;SDS011;682;52.502;13.488;2023-05-13T12:27:29;5.93;;;3.37;;
1376;SDS011;682;52.502;13.488;2023-05-13T12:29:56;4.70;;;3.20;;
1376;SDS011;682;52.502;13.488;2023-05-13T12:32:23;3.37;;;3.07;;
1376;SDS011;682;52.502;13.488;2023-05-13T12:34:50;5.67;;;3.10;;
1376;SDS011;682;52.502;13.488;2023-05-13T12:37:17;3.73;;;3.03;;
1376;SDS011;682;52.502;13.488;2023-05-13T12:39:49;5.23;;;3.33;;
1376;SDS011;682;52.502;13.488;2023-05-13T12:42:36;9.00;;;4.20;;
1376;SDS011;682;52.502;13.488;2023-05-13T12:45:03;4.53;;;3.27;;
1376;SDS011;682;52.502;13.488;2023-05-13T12:47:46;3.90;;;3.27;;
1376;SDS011;682;52.502;13.488;2023-05-13T12:50:14;5.97;;;4.53;;
1376;SDS011;682;52.502;13.488;2023-05-13T12:52:41;3.67;;;3.30;;
1376;SDS011;682;52.502;13.488;2023-05-13T12:55:09;6.43;;;3.13;;
1376;SDS011;682;52.502;13.488;2023-05-13T12:57:38;5.43;;;4.33;;
1376;SDS011;682;52.502;13.488;2023-05-13T13:00:07;6.13;;;3.10;;
1376;SDS011;682;52.502;13.488;2023-05-13T13:02:35;4.57;;;3.70;;
1376;SDS011;682;52.502;13.488;2023-05-13T13:05:02;8.27;;;4.60;;
1376;SDS011;682;52.502;13.488;2023-05-13T13:07:30;3.70;;;3.40;;
1376;SDS011;682;52.502;13.488;2023-05-13T13:09:57;5.67;;;3.97;;
1376;SDS011;682;52.502;13.488;2023-05-13T13:12:24;7.40;;;4.00;;
1376;SDS011;682;52.502;13.488;2023-05-13T13:14:53;4.07;;;3.17;;
1376;SDS011;682;52.502;13.488;2023-05-13T13:17:21;5.23;;;3.60;;
1376;SDS011;682;52.502;13.488;2023-05-13T13:19:47;5.87;;;3.80;;
1376;SDS011;682;52.502;13.488;2023-05-13T13:22:14;7.40;;;4.00;;
1376;SDS011;682;52.502;13.488;2023-05-13T13:24:41;7.80;;;3.53;;
1376;SDS011;682;52.502;13.488;2023-05-13T13:27:10;6.73;;;3.40;;
1376;SDS011;682;52.502;13.488;2023-05-13T13:29:38;5.17;;;3.03;;
1376;SDS011;682;52.502;13.488;2023-05-13T13:32:08;4.40;;;3.83;;
1376;SDS011;682;52.502;13.488;2023-05-13T13:34:36;3.83;;;3.27;;
1376;SDS011;682;52.502;13.488;2023-05-13T13:37:04;5.63;;;5.13;;
1376;SDS011;682;52.502;13.488;2023-05-13T13:39:31;5.77;;;3.73;;
1376;SDS011;682;52.502;13.488;2023-05-13T13:41:59;5.20;;;4.13;;
1376;SDS011;682;52.502;13.488;2023-05-13T13:44:28;4.37;;;3.83;;
1376;SDS011;682;52.502;13.488;2023-05-13T13:46:55;5.50;;;4.10;;
1376;SDS011;682;52.502;13.488;2023-05-13T13:49:24;3.50;;;3.20;;
1376;SDS011;682;52.502;13.488;2023-05-13T13:51:51;4.00;;;3.10;;
1376;SDS011;682;52.502;13.488;2023-05-13T13:54:18;4.03;;;3.47;;
1376;SDS011;682;52.502;13.488;2023-05-13T13:56:46;4.90;;;3.90;;
1376;SDS011;682;52.502;13.488;2023-05-13T13:59:13;4.10;;;3.70;;
1376;SDS011;682;52.502;13.488;2023-05-13T14:01:43;5.13;;;4.00;;
1376;SDS011;682;52.502;13.488;2023-05-13T14:04:11;4.80;;;4.23;;
1376;SDS011;682;52.502;13.488;2023-05-13T14:06:40;4.33;;;3.93;;
1376;SDS011;682;52.502;13.488;2023-05-13T14:09:07;5.47;;;4.50;;
1376;SDS011;682;52.502;13.488;2023-05-13T14:11:35;4.90;;;3.87;;
1376;SDS011;682;52.502;13.488;2023-05-13T14:14:02;4.50;;;3.53;;
1376;SDS011;682;52.502;13.488;2023-05-13T14:16:29;3.80;;;3.50;;
1376;SDS011;682;52.502;13.488;2023-05-13T14:18:56;5.53;;;4.10;;
1376;SDS011;682;52.502;13.488;2023-05-13T14:21:23;3.70;;;3.40;;
1376;SDS011;682;52.502;13.488;2023-05-13T14:23:54;4.33;;;3.67;;
1376;SDS011;682;52.502;13.488;2023-05-13T14:26:21;4.83;;;4.43;;
1376;SDS011;682;52.502;13.488;2023-05-13T14:28:48;4.20;;;3.87;;
1376;SDS011;682;52.502;13.488;2023-05-13T14:31:15;3.70;;;3.40;;
1376;SDS011;682;52.502;13.488;2023-05-13T14:33:42;4.40;;;3.70;;
1376;SDS011;682;52.502;13.488;2023-05-13T14:36:09;4.70;;;4.17;;
1376;SDS011;682;52.502;13.488;2023-05-13T14:38:40;7.37;;;4.20;;
1376;SDS011;682;52.502;13.488;2023-05-13T14:41:10;4.00;;;3.60;;
1376;SDS011;682;52.502;13.488;2023-05-13T14:43:43;5.90;;;3.97;;
1376;SDS011;682;52.502;13.488;2023-05-13T14:46:10;5.47;;;3.37;;
1376;SDS011;682;52.502;13.488;2023-05-13T14:48:37;4.87;;;4.40;;
1376;SDS011;682;52.502;13.488;2023-05-13T14:51:05;3.90;;;3.60;;
1376;SDS011;682;52.502;13.488;2023-05-13T14:53:32;6.47;;;3.53;;
1376;SDS011;682;52.502;13.488;2023-05-13T14:55:59;4.20;;;3.70;;
1376;SDS011;682;52.502;13.488;2023-05-13T14:58:28;4.77;;;3.67;;
1376;SDS011;682;52.502;13.488;2023-05-13T15:00:56;3.90;;;3.60;;
1376;SDS011;682;52.502;13.488;2023-05-13T15:03:23;4.10;;;3.70;;
1376;SDS011;682;52.502;13.488;2023-05-13T15:05:50;5.80;;;4.47;;
1376;SDS011;682;52.502;13.488;2023-05-13T15:08:18;3.60;;;3.30;;
1376;SDS011;682;52.502;13.488;2023-05-13T15:10:46;4.17;;;3.57;;
1376;SDS011;682;52.502;13.488;2023-05-13T15:13:13;5.50;;;3.87;;
1376;SDS011;682;52.502;13.488;2023-05-13T15:15:42;3.47;;;3.17;;
1376;SDS011;682;52.502;13.488;2023-05-13T15:18:11;3.93;;;3.60;;
1376;SDS011;682;52.502;13.488;2023-05-13T15:20:39;3.40;;;3.20;;
1376;SDS011;682;52.502;13.488;2023-05-13T15:23:06;3.87;;;3.57;;
1376;SDS011;682;52.502;13.488;2023-05-13T15:25:33;4.53;;;4.13;;
1376;SDS011;682;52.502;13.488;2023-05-13T15:28:01;4.27;;;3.87;;
1376;SDS011;682;52.502;13.488;2023-05-13T15:30:28;9.43;;;4.57;;
1376;SDS011;682;52.502;13.488;2023-05-13T15:32:56;8.20;;;4.50;;
1376;SDS011;682;52.502;13.488;2023-05-13T15:35:23;8.50;;;6.40;;